PWSweather.com
Personal Weather Stations
Station Observations
BREDONHILL
Bredon Hill Academy, EveshamGB

Bredon Hill AcademyEveshamGB

Lat: 52.04280019999999, Lon: -2.0048821000000316

Elevation: 247

Station Type: Davis Vantage Pro 2

Latest ConditionsUpdated 5:15:00 AM GMT Thursday, Jun 27, 2019
Currently Today's Max Today's Min Today's Average
Temperature 52.5°F11.4°C 54.2°F12.3°C 52.5°F11.4°C 53.1°F11.7°C
Dew Point 48.7°F9.3°C 51.0°F10.6°C 48.7°F9.3°C 50.0°F10.0°C
Winds 10.0 mph NE16.1 kmh NE 12.0 mph -19.3 kmh - - 9.2 mph 14.8 kmh
Wind Gusts 17.0 mph27.4 kmh 18.0 mph29.0 kmh - -
Humidity 87% 91% 87% 89%
Pressure 30.42 in1030.1 mb 30.43 in1030.5 mb 30.41 in1029.8 mb -
Hour Temp Dew Point Humidity Winds Wind Gusts Pressure Precip Precip Rate Daily Precip Total
05:15 AM 52.5°F11.4°C 48.7°F9.3°C 87% 10.0 mph NE16.1 kmh NE 17.0 mph27.4 kmh 30.42 in1030.1 mb 0.00 in0.0 mm 0.00 in0.0 mm 0.00 in0.0 mm
05:10 AM 52.6°F11.4°C 49.1°F9.5°C 88% 11.0 mph NE17.7 kmh NE 17.0 mph27.4 kmh 30.42 in1030.1 mb 0.00 in0.0 mm 0.00 in0.0 mm 0.00 in0.0 mm
05:05 AM 52.6°F11.4°C 49.1°F9.5°C 88% 10.0 mph NE16.1 kmh NE 16.0 mph25.7 kmh 30.42 in1030.1 mb 0.00 in0.0 mm 0.00 in0.0 mm 0.00 in0.0 mm
05:00 AM 52.6°F11.4°C 49.1°F9.5°C 88% 10.0 mph NE16.1 kmh NE 15.0 mph24.1 kmh 30.42 in1030.1 mb 0.00 in0.0 mm 0.00 in0.0 mm 0.00 in0.0 mm
04:55 AM 52.6°F11.4°C 49.1°F9.5°C 88% 10.0 mph NE16.1 kmh NE 15.0 mph24.1 kmh 30.42 in1030.1 mb 0.00 in0.0 mm 0.00 in0.0 mm 0.00 in0.0 mm
04:50 AM 52.6°F11.4°C 49.4°F9.7°C 89% 10.0 mph NE16.1 kmh NE 15.0 mph24.1 kmh 30.42 in1030.1 mb 0.00 in0.0 mm 0.00 in0.0 mm 0.00 in0.0 mm
04:45 AM 52.6°F11.4°C 49.4°F9.7°C 89% 10.0 mph NE16.1 kmh NE 18.0 mph29.0 kmh 30.42 in1030.1 mb 0.00 in0.0 mm 0.00 in0.0 mm 0.00 in0.0 mm
04:40 AM 52.6°F11.4°C 49.4°F9.7°C 89% 10.0 mph NE16.1 kmh NE 18.0 mph29.0 kmh 30.42 in1030.1 mb 0.00 in0.0 mm 0.00 in0.0 mm 0.00 in0.0 mm
04:35 AM 52.6°F11.4°C 49.4°F9.7°C 89% 9.0 mph NE14.5 kmh NE 14.0 mph22.5 kmh 30.42 in1030.1 mb 0.00 in0.0 mm 0.00 in0.0 mm 0.00 in0.0 mm
04:30 AM 52.6°F11.4°C 49.4°F9.7°C 89% 9.0 mph NE14.5 kmh NE 15.0 mph24.1 kmh 30.42 in1030.1 mb 0.00 in0.0 mm 0.00 in0.0 mm 0.00 in0.0 mm
04:25 AM 52.6°F11.4°C 49.4°F9.7°C 89% 9.0 mph NE14.5 kmh NE 15.0 mph24.1 kmh 30.42 in1030.1 mb 0.00 in0.0 mm 0.00 in0.0 mm 0.00 in0.0 mm
04:20 AM 52.5°F11.4°C 49.4°F9.7°C 89% 8.0 mph NE12.9 kmh NE 12.0 mph19.3 kmh 30.42 in1030.1 mb 0.00 in0.0 mm 0.00 in0.0 mm 0.00 in0.0 mm
04:15 AM 52.5°F11.4°C 49.4°F9.7°C 89% 8.0 mph NE12.9 kmh NE 15.0 mph24.1 kmh 30.41 in1029.8 mb 0.00 in0.0 mm 0.00 in0.0 mm 0.00 in0.0 mm
04:10 AM 52.5°F11.4°C 49.4°F9.7°C 89% 9.0 mph NE14.5 kmh NE 15.0 mph24.1 kmh 30.41 in1029.8 mb 0.00 in0.0 mm 0.00 in0.0 mm 0.00 in0.0 mm
04:05 AM 52.6°F11.4°C 49.4°F9.7°C 89% 10.0 mph NE16.1 kmh NE 15.0 mph24.1 kmh 30.41 in1029.8 mb 0.00 in0.0 mm 0.00 in0.0 mm 0.00 in0.0 mm
04:00 AM 52.6°F11.4°C 49.4°F9.7°C 89% 10.0 mph NE16.1 kmh NE 15.0 mph24.1 kmh 30.41 in1029.8 mb 0.00 in0.0 mm 0.00 in0.0 mm 0.00 in0.0 mm
03:55 AM 52.6°F11.4°C 49.4°F9.7°C 89% 10.0 mph NE16.1 kmh NE 15.0 mph24.1 kmh 30.41 in1029.8 mb 0.00 in0.0 mm 0.00 in0.0 mm 0.00 in0.0 mm
03:50 AM 52.5°F11.4°C 49.4°F9.7°C 89% 9.0 mph NE14.5 kmh NE 14.0 mph22.5 kmh 30.42 in1030.1 mb 0.00 in0.0 mm 0.00 in0.0 mm 0.00 in0.0 mm
03:45 AM 52.5°F11.4°C 49.4°F9.7°C 89% 8.0 mph NE12.9 kmh NE 14.0 mph22.5 kmh 30.42 in1030.1 mb 0.00 in0.0 mm 0.00 in0.0 mm 0.00 in0.0 mm
03:40 AM 52.5°F11.4°C 49.4°F9.7°C 89% 9.0 mph NE14.5 kmh NE 15.0 mph24.1 kmh 30.42 in1030.1 mb 0.00 in0.0 mm 0.00 in0.0 mm 0.00 in0.0 mm
03:35 AM 52.6°F11.4°C 49.4°F9.7°C 89% 8.0 mph NE12.9 kmh NE 15.0 mph24.1 kmh 30.42 in1030.1 mb 0.00 in0.0 mm 0.00 in0.0 mm 0.00 in0.0 mm
03:30 AM 52.5°F11.4°C 49.4°F9.7°C 89% 8.0 mph NE12.9 kmh NE 13.0 mph20.9 kmh 30.42 in1030.1 mb 0.00 in0.0 mm 0.00 in0.0 mm 0.00 in0.0 mm
03:25 AM 52.6°F11.4°C 49.4°F9.7°C 89% 9.0 mph NE14.5 kmh NE 14.0 mph22.5 kmh 30.42 in1030.1 mb 0.00 in0.0 mm 0.00 in0.0 mm 0.00 in0.0 mm
03:20 AM 52.6°F11.4°C 49.4°F9.7°C 89% 9.0 mph NE14.5 kmh NE 14.0 mph22.5 kmh 30.42 in1030.1 mb 0.00 in0.0 mm 0.00 in0.0 mm 0.00 in0.0 mm
03:15 AM 52.6°F11.4°C 49.4°F9.7°C 89% 8.0 mph NE12.9 kmh NE 14.0 mph22.5 kmh 30.42 in1030.1 mb 0.00 in0.0 mm 0.00 in0.0 mm 0.00 in0.0 mm
03:10 AM 52.6°F11.4°C 49.4°F9.7°C 89% 8.0 mph NE12.9 kmh NE 13.0 mph20.9 kmh 30.42 in1030.1 mb 0.00 in0.0 mm 0.00 in0.0 mm 0.00 in0.0 mm
03:05 AM 52.7°F11.5°C 49.5°F9.7°C 89% 9.0 mph NE14.5 kmh NE 15.0 mph24.1 kmh 30.42 in1030.1 mb 0.00 in0.0 mm 0.00 in0.0 mm 0.00 in0.0 mm
03:00 AM 52.8°F11.6°C 49.6°F9.8°C 89% 9.0 mph NE14.5 kmh NE 15.0 mph24.1 kmh 30.42 in1030.1 mb 0.00 in0.0 mm 0.00 in0.0 mm 0.00 in0.0 mm
02:55 AM 52.9°F11.6°C 49.7°F9.8°C 89% 9.0 mph NE14.5 kmh NE 16.0 mph25.7 kmh 30.42 in1030.1 mb 0.00 in0.0 mm 0.00 in0.0 mm 0.00 in0.0 mm
02:50 AM 52.8°F11.6°C 49.6°F9.8°C 89% 8.0 mph NE12.9 kmh NE 16.0 mph25.7 kmh 30.42 in1030.1 mb 0.00 in0.0 mm 0.00 in0.0 mm 0.00 in0.0 mm
02:45 AM 53.0°F11.7°C 50.1°F10.1°C 90% 9.0 mph NE14.5 kmh NE 17.0 mph27.4 kmh 30.41 in1029.8 mb 0.00 in0.0 mm 0.00 in0.0 mm 0.00 in0.0 mm
02:40 AM 53.0°F11.7°C 49.8°F9.9°C 89% 9.0 mph NE14.5 kmh NE 17.0 mph27.4 kmh 30.41 in1029.8 mb 0.00 in0.0 mm 0.00 in0.0 mm 0.00 in0.0 mm
02:35 AM 53.1°F11.7°C 49.9°F9.9°C 89% 9.0 mph NE14.5 kmh NE 15.0 mph24.1 kmh 30.41 in1029.8 mb 0.00 in0.0 mm 0.00 in0.0 mm 0.00 in0.0 mm
02:30 AM 53.2°F11.8°C 50.0°F10.0°C 89% 10.0 mph NE16.1 kmh NE 15.0 mph24.1 kmh 30.41 in1029.8 mb 0.00 in0.0 mm 0.00 in0.0 mm 0.00 in0.0 mm
02:25 AM 53.2°F11.8°C 50.3°F10.2°C 90% 10.0 mph NE16.1 kmh NE 15.0 mph24.1 kmh 30.42 in1030.1 mb 0.00 in0.0 mm 0.00 in0.0 mm 0.00 in0.0 mm
02:20 AM 53.2°F11.8°C 50.3°F10.2°C 90% 9.0 mph NE14.5 kmh NE 14.0 mph22.5 kmh 30.42 in1030.1 mb 0.00 in0.0 mm 0.00 in0.0 mm 0.00 in0.0 mm
02:15 AM 53.1°F11.7°C 50.2°F10.1°C 90% 9.0 mph NE14.5 kmh NE 14.0 mph22.5 kmh 30.41 in1029.8 mb 0.00 in0.0 mm 0.00 in0.0 mm 0.00 in0.0 mm
02:10 AM 53.2°F11.8°C 50.6°F10.3°C 91% 8.0 mph NE12.9 kmh NE 14.0 mph22.5 kmh 30.42 in1030.1 mb 0.00 in0.0 mm 0.00 in0.0 mm 0.00 in0.0 mm
02:05 AM 53.2°F11.8°C 50.3°F10.2°C 90% 9.0 mph NE14.5 kmh NE 15.0 mph24.1 kmh 30.42 in1030.1 mb 0.00 in0.0 mm 0.00 in0.0 mm 0.00 in0.0 mm
02:00 AM 53.2°F11.8°C 50.6°F10.3°C 91% 9.0 mph NE14.5 kmh NE 15.0 mph24.1 kmh 30.42 in1030.1 mb 0.00 in0.0 mm 0.00 in0.0 mm 0.00 in0.0 mm
01:55 AM 53.2°F11.8°C 50.6°F10.3°C 91% 9.0 mph NE14.5 kmh NE 15.0 mph24.1 kmh 30.42 in1030.1 mb 0.00 in0.0 mm 0.00 in0.0 mm 0.00 in0.0 mm
01:50 AM 53.3°F11.8°C 50.4°F10.2°C 90% 9.0 mph NE14.5 kmh NE 15.0 mph24.1 kmh 30.42 in1030.1 mb 0.00 in0.0 mm 0.00 in0.0 mm 0.00 in0.0 mm
01:45 AM 53.3°F11.8°C 50.4°F10.2°C 90% 10.0 mph NE16.1 kmh NE 15.0 mph24.1 kmh 30.42 in1030.1 mb 0.00 in0.0 mm 0.00 in0.0 mm 0.00 in0.0 mm
01:40 AM 53.3°F11.8°C 50.4°F10.2°C 90% 10.0 mph NE16.1 kmh NE 15.0 mph24.1 kmh 30.42 in1030.1 mb 0.00 in0.0 mm 0.00 in0.0 mm 0.00 in0.0 mm
01:35 AM 53.3°F11.8°C 50.4°F10.2°C 90% 10.0 mph NE16.1 kmh NE 14.0 mph22.5 kmh 30.42 in1030.1 mb 0.00 in0.0 mm 0.00 in0.0 mm 0.00 in0.0 mm
01:30 AM 53.3°F11.8°C 50.7°F10.4°C 91% 9.0 mph NE14.5 kmh NE 15.0 mph24.1 kmh 30.42 in1030.1 mb 0.00 in0.0 mm 0.00 in0.0 mm 0.00 in0.0 mm
01:25 AM 53.4°F11.9°C 50.8°F10.4°C 91% 8.0 mph NE12.9 kmh NE 15.0 mph24.1 kmh 30.42 in1030.1 mb 0.00 in0.0 mm 0.00 in0.0 mm 0.00 in0.0 mm
01:20 AM 53.4°F11.9°C 50.8°F10.4°C 91% 8.0 mph NE12.9 kmh NE 12.0 mph19.3 kmh 30.42 in1030.1 mb 0.00 in0.0 mm 0.00 in0.0 mm 0.00 in0.0 mm
01:15 AM 53.4°F11.9°C 50.8°F10.4°C 91% 8.0 mph NE12.9 kmh NE 12.0 mph19.3 kmh 30.42 in1030.1 mb 0.00 in0.0 mm 0.00 in0.0 mm 0.00 in0.0 mm
01:10 AM 53.5°F11.9°C 50.6°F10.3°C 90% 8.0 mph NE12.9 kmh NE 13.0 mph20.9 kmh 30.42 in1030.1 mb 0.00 in0.0 mm 0.00 in0.0 mm 0.00 in0.0 mm
01:05 AM 53.5°F11.9°C 50.6°F10.3°C 90% 8.0 mph NE12.9 kmh NE 13.0 mph20.9 kmh 30.42 in1030.1 mb 0.00 in0.0 mm 0.00 in0.0 mm 0.00 in0.0 mm
01:00 AM 53.6°F12.0°C 50.7°F10.4°C 90% 8.0 mph NE12.9 kmh NE 13.0 mph20.9 kmh 30.42 in1030.1 mb 0.00 in0.0 mm 0.00 in0.0 mm 0.00 in0.0 mm
12:55 AM 53.7°F12.1°C 50.8°F10.4°C 90% 8.0 mph NE12.9 kmh NE 14.0 mph22.5 kmh 30.42 in1030.1 mb 0.00 in0.0 mm 0.00 in0.0 mm 0.00 in0.0 mm
12:50 AM 53.7°F12.1°C 50.8°F10.4°C 90% 8.0 mph NE12.9 kmh NE 14.0 mph22.5 kmh 30.43 in1030.5 mb 0.00 in0.0 mm 0.00 in0.0 mm 0.00 in0.0 mm
12:45 AM 53.8°F12.1°C 50.6°F10.3°C 89% 9.0 mph NE14.5 kmh NE 15.0 mph24.1 kmh 30.42 in1030.1 mb 0.00 in0.0 mm 0.00 in0.0 mm 0.00 in0.0 mm
12:40 AM 53.8°F12.1°C 50.6°F10.3°C 89% 10.0 mph NE16.1 kmh NE 15.0 mph24.1 kmh 30.42 in1030.1 mb 0.00 in0.0 mm 0.00 in0.0 mm 0.00 in0.0 mm
12:35 AM 53.8°F12.1°C 50.9°F10.5°C 90% 10.0 mph NE16.1 kmh NE 16.0 mph25.7 kmh 30.42 in1030.1 mb 0.00 in0.0 mm 0.00 in0.0 mm 0.00 in0.0 mm
12:30 AM 53.9°F12.2°C 51.0°F10.6°C 90% 11.0 mph NE17.7 kmh NE 17.0 mph27.4 kmh 30.42 in1030.1 mb 0.00 in0.0 mm 0.00 in0.0 mm 0.00 in0.0 mm
12:25 AM 53.9°F12.2°C 50.7°F10.4°C 89% 12.0 mph NE19.3 kmh NE 17.0 mph27.4 kmh 30.42 in1030.1 mb 0.00 in0.0 mm 0.00 in0.0 mm 0.00 in0.0 mm
12:20 AM 54.0°F12.2°C 50.8°F10.4°C 89% 11.0 mph NE17.7 kmh NE 16.0 mph25.7 kmh 30.42 in1030.1 mb 0.00 in0.0 mm 0.00 in0.0 mm 0.00 in0.0 mm
12:15 AM 54.1°F12.3°C 50.9°F10.5°C 89% 10.0 mph NE16.1 kmh NE 17.0 mph27.4 kmh 30.43 in1030.5 mb 0.00 in0.0 mm 0.00 in0.0 mm 0.00 in0.0 mm
12:10 AM 54.2°F12.3°C 51.0°F10.6°C 89% 10.0 mph NE16.1 kmh NE 17.0 mph27.4 kmh 30.43 in1030.5 mb 0.00 in0.0 mm 0.00 in0.0 mm 0.00 in0.0 mm
12:05 AM 54.2°F12.3°C 51.0°F10.6°C 89% 10.0 mph NE16.1 kmh NE 17.0 mph27.4 kmh 30.42 in1030.1 mb 0.00 in0.0 mm 0.00 in0.0 mm 0.00 in0.0 mm
12:00 AM 54.2°F12.3°C 51.0°F10.6°C 89% 9.0 mph NE14.5 kmh NE 15.0 mph24.1 kmh 30.43 in1030.5 mb 0.00 in0.0 mm 0.00 in0.0 mm 0.00 in0.0 mm